Aviation Digital Data Service (ADDS)

Output produced by METARs form (0531 UTC 20 September 2017)
found at http://www.aviationweather.gov/adds/metars/
 
KJFK 200451Z 02014G26KT 10SM SCT024 BKN046 22/18 A2984 RMK AO2 PK WND 02026/0408 SLP104 T02220178 402500206
KJFK 200520Z 2006/2112 01015G25KT P6SM SCT025 OVC035 
     FM201400 35018G25KT P6SM BKN035 
     FM201700 34018G25KT P6SM SCT035 OVC250 
     FM202100 34013G20KT P6SM SCT035 OVC250 
     FM210200 34011KT P6SM FEW030 OVC250
       
EGLL 200520Z VRB03KT 8000 NSC 09/09 Q1020
TAF EGLL 200503Z 2006/2112 21005KT 9999 SCT045 
     TEMPO 2006/2008 7000 
     PROB40 
     TEMPO 2006/2007 3500 BR 
     PROB30 
     TEMPO 2008/2010 BKN012
       
KBNA 200453Z 17003KT 10SM SCT037 21/19 A2998 RMK AO2 SLP146 T02060194 $
KBNA 192320Z 2000/2024 19005KT P6SM SCT250 
     FM201600 22005KT P6SM SCT040